createdAt,value
2018-05-15T00:00:28.505Z,62.37
2018-05-15T00:01:28.494Z,62.24
2018-05-15T00:02:28.488Z,62.18
2018-05-15T00:03:28.485Z,62.18
2018-05-15T00:04:28.479Z,62.18
2018-05-15T00:05:28.473Z,62.44
2018-05-15T00:06:28.470Z,62.27
2018-05-15T00:07:28.463Z,62.18
2018-05-15T00:08:28.461Z,62.27
2018-05-15T00:09:28.454Z,62.18
2018-05-15T00:10:28.449Z,62.27
2018-05-15T00:11:28.446Z,62.08
2018-05-15T00:12:28.438Z,61.98
2018-05-15T00:13:28.433Z,62.05
2018-05-15T00:14:28.428Z,62.18
2018-05-15T00:15:28.424Z,61.89
2018-05-15T00:16:28.419Z,62.08
2018-05-15T00:17:28.413Z,62.08
2018-05-15T00:18:28.407Z,62.27
2018-05-15T00:19:28.402Z,62.08
2018-05-15T00:20:28.397Z,61.98
2018-05-15T00:21:28.393Z,62.27
2018-05-15T00:22:28.390Z,62.08
2018-05-15T00:23:28.383Z,62.05
2018-05-15T00:24:28.378Z,62.08
2018-05-15T00:25:28.374Z,62.44
2018-05-15T00:26:28.369Z,62.15
2018-05-15T00:27:28.364Z,62.18
2018-05-15T00:28:28.358Z,62.08
2018-05-15T00:29:28.353Z,62.27
2018-05-15T00:30:28.347Z,62.56
2018-05-15T00:31:28.342Z,62.56
2018-05-15T00:32:28.341Z,62.66
2018-05-15T00:33:28.335Z,62.56
2018-05-15T00:34:28.328Z,62.66
2018-05-15T00:35:28.324Z,62.76
2018-05-15T00:36:28.318Z,62.27
2018-05-15T00:37:28.313Z,62.24
2018-05-15T00:38:28.308Z,62.37
2018-05-15T00:39:28.302Z,62.37
2018-05-15T00:40:28.301Z,62.24
2018-05-15T00:41:28.292Z,62.24
2018-05-15T00:42:28.287Z,62.63
2018-05-15T00:43:28.282Z,62.34
2018-05-15T00:44:28.277Z,62.34
2018-05-15T00:45:28.275Z,62.24
2018-05-15T00:46:28.268Z,62.73
2018-05-15T00:47:28.263Z,62.76
2018-05-15T00:48:28.258Z,62.53
2018-05-15T00:49:28.252Z,62.63
2018-05-15T00:50:28.247Z,62.47
2018-05-15T00:51:28.245Z,62.53
2018-05-15T00:52:28.237Z,62.44
2018-05-15T00:53:28.231Z,62.53
2018-05-15T00:54:28.231Z,62.63
2018-05-15T00:55:28.221Z,62.63
2018-05-15T00:56:28.218Z,62.73
2018-05-15T00:57:28.218Z,62.63
2018-05-15T00:58:28.207Z,62.63
2018-05-15T00:59:28.202Z,62.73
2018-05-15T01:00:28.197Z,62.73
2018-05-15T01:01:28.219Z,62.73
2018-05-15T01:02:28.187Z,62.53
2018-05-15T01:03:28.202Z,62.63
2018-05-15T01:04:28.180Z,62.92
2018-05-15T01:05:28.172Z,62.92
2018-05-15T01:06:28.165Z,62.82
2018-05-15T01:07:28.161Z,62.82
2018-05-15T01:08:28.158Z,62.82
2018-05-15T01:09:28.150Z,62.73
2018-05-15T01:10:28.148Z,62.82
2018-05-15T01:11:28.137Z,62.82
2018-05-15T01:12:28.137Z,62.82
2018-05-15T01:13:28.139Z,62.63
2018-05-15T01:14:28.126Z,62.63
2018-05-15T01:15:28.126Z,62.73
2018-05-15T01:16:28.115Z,62.73
2018-05-15T01:17:28.112Z,62.73
2018-05-15T01:18:28.106Z,62.82
2018-05-15T01:19:28.102Z,62.92
2018-05-15T01:20:28.097Z,62.63
2018-05-15T01:21:28.091Z,62.63
2018-05-15T01:22:28.086Z,62.82
2018-05-15T01:23:28.080Z,62.82
2018-05-15T01:24:28.077Z,62.92
2018-05-15T01:25:28.071Z,62.92
2018-05-15T01:26:28.067Z,62.73
2018-05-15T01:27:28.078Z,62.53
2018-05-15T01:28:28.057Z,63.31
2018-05-15T01:29:28.050Z,63.11
2018-05-15T01:30:28.047Z,63.11
2018-05-15T01:31:28.051Z,63.11
2018-05-15T01:32:28.039Z,63.11
2018-05-15T01:33:28.031Z,63.21
2018-05-15T01:34:28.027Z,63.11
2018-05-15T01:35:28.020Z,63.21
2018-05-15T01:36:28.017Z,63.11
2018-05-15T01:37:28.012Z,63.21
2018-05-15T01:38:28.006Z,63.21
2018-05-15T01:39:28.001Z,63.40
2018-05-15T01:40:27.995Z,63.40
2018-05-15T01:41:27.991Z,63.40
2018-05-15T01:42:27.987Z,63.21
2018-05-15T01:43:27.982Z,63.40
2018-05-15T01:44:27.977Z,63.11
2018-05-15T01:45:27.969Z,63.11
2018-05-15T01:46:27.965Z,63.11
2018-05-15T01:47:27.962Z,63.02
2018-05-15T01:48:27.964Z,62.92
2018-05-15T01:49:27.949Z,63.11
2018-05-15T01:50:27.950Z,63.02
2018-05-15T01:51:27.943Z,63.02
2018-05-15T01:52:27.936Z,63.11
2018-05-15T01:53:27.929Z,62.92
2018-05-15T01:54:27.925Z,62.82
2018-05-15T01:55:27.921Z,63.11
2018-05-15T01:56:27.914Z,63.11
2018-05-15T01:57:27.911Z,63.21
2018-05-15T01:58:27.904Z,63.21
2018-05-15T01:59:27.901Z,62.82
2018-05-15T02:00:27.898Z,62.92
2018-05-15T02:01:27.893Z,63.02
2018-05-15T02:02:27.886Z,62.92
2018-05-15T02:03:27.879Z,62.92
2018-05-15T02:04:27.874Z,63.11
2018-05-15T02:05:27.873Z,62.82
2018-05-15T02:06:27.864Z,62.92
2018-05-15T02:07:27.859Z,62.92
2018-05-15T02:08:27.853Z,62.92
2018-05-15T02:09:27.848Z,63.02
2018-05-15T02:10:27.844Z,63.11
2018-05-15T02:11:27.838Z,62.82
2018-05-15T02:12:27.836Z,63.11
2018-05-15T02:13:27.828Z,63.02
2018-05-15T02:14:27.825Z,62.92
2018-05-15T02:15:27.820Z,62.92
2018-05-15T02:16:27.812Z,62.92
2018-05-15T02:17:27.807Z,62.92
2018-05-15T02:18:27.811Z,62.92
2018-05-15T02:19:27.802Z,62.92
2018-05-15T02:20:27.794Z,62.92
2018-05-15T02:21:27.788Z,62.92
2018-05-15T02:22:27.783Z,63.21
2018-05-15T02:23:27.779Z,63.11
2018-05-15T02:24:27.772Z,63.21
2018-05-15T02:25:27.768Z,63.02
2018-05-15T02:26:27.767Z,63.11
2018-05-15T02:27:27.757Z,63.31
2018-05-15T02:28:27.754Z,63.21
2018-05-15T02:29:27.748Z,63.11
2018-05-15T02:30:27.756Z,63.11
2018-05-15T02:31:27.739Z,63.21
2018-05-15T02:32:27.736Z,63.31
2018-05-15T02:33:27.727Z,63.21
2018-05-15T02:34:27.720Z,63.31
2018-05-15T02:35:27.717Z,63.40
2018-05-15T02:36:27.712Z,63.40
2018-05-15T02:37:27.706Z,63.60
2018-05-15T02:38:27.700Z,63.60
2018-05-15T02:39:27.697Z,63.40
2018-05-15T02:40:27.692Z,63.21
2018-05-15T02:41:27.689Z,63.40
2018-05-15T02:42:27.681Z,63.21
2018-05-15T02:43:27.676Z,63.31
2018-05-15T02:44:27.676Z,63.21
2018-05-15T02:45:27.666Z,63.28
2018-05-15T02:46:27.660Z,63.60
2018-05-15T02:47:27.665Z,63.02
2018-05-15T02:48:27.650Z,63.02
2018-05-15T02:49:27.645Z,63.31
2018-05-15T02:50:27.640Z,63.11
2018-05-15T02:51:27.633Z,63.08
2018-05-15T02:52:27.629Z,63.21
2018-05-15T02:53:27.624Z,63.50
2018-05-15T02:54:27.619Z,63.50
2018-05-15T02:55:27.613Z,63.60
2018-05-15T02:56:27.609Z,63.69
2018-05-15T02:57:27.615Z,63.66
2018-05-15T02:58:27.598Z,63.37
2018-05-15T02:59:27.594Z,63.28
2018-05-15T03:00:27.587Z,63.40
2018-05-15T03:01:27.582Z,63.50
2018-05-15T03:02:27.577Z,63.40
2018-05-15T03:03:27.573Z,63.40
2018-05-15T03:04:27.571Z,63.40
2018-05-15T03:05:27.561Z,63.50
2018-05-15T03:06:27.556Z,63.37
2018-05-15T03:07:27.552Z,63.60
2018-05-15T03:08:27.548Z,63.60
2018-05-15T03:09:27.542Z,63.60
2018-05-15T03:10:27.547Z,63.85
2018-05-15T03:11:27.535Z,63.60
2018-05-15T03:12:27.530Z,63.60
2018-05-15T03:13:27.522Z,63.50
2018-05-15T03:14:27.516Z,63.69
2018-05-15T03:15:27.511Z,63.56
2018-05-15T03:16:27.506Z,63.47
2018-05-15T03:17:27.500Z,63.50
2018-05-15T03:18:27.495Z,63.50
2018-05-15T03:19:27.491Z,63.79
2018-05-15T03:20:27.485Z,63.66
2018-05-15T03:21:27.478Z,63.47
2018-05-15T03:22:27.475Z,63.47
2018-05-15T03:23:27.472Z,63.47
2018-05-15T03:24:27.465Z,63.76
2018-05-15T03:25:27.458Z,63.47
2018-05-15T03:26:27.456Z,63.85
2018-05-15T03:27:27.448Z,63.76
2018-05-15T03:28:27.444Z,63.76
2018-05-15T03:29:27.441Z,63.95
2018-05-15T03:30:27.433Z,64.05
2018-05-15T03:31:27.536Z,64.05
2018-05-15T03:32:27.425Z,63.95
2018-05-15T03:33:27.418Z,63.76
2018-05-15T03:34:27.413Z,64.05
2018-05-15T03:35:27.408Z,63.95
2018-05-15T03:36:27.405Z,63.95
2018-05-15T03:37:27.398Z,63.66
2018-05-15T03:38:27.393Z,63.98
2018-05-15T03:39:27.387Z,63.95
2018-05-15T03:40:27.383Z,63.85
2018-05-15T03:41:27.381Z,63.85
2018-05-15T03:42:27.371Z,64.05
2018-05-15T03:43:27.369Z,63.98
2018-05-15T03:44:27.362Z,63.95
2018-05-15T03:45:27.356Z,63.76
2018-05-15T03:46:27.353Z,63.85
2018-05-15T03:47:27.346Z,63.47
2018-05-15T03:48:27.341Z,63.85
2018-05-15T03:49:27.339Z,63.85
2018-05-15T03:50:27.331Z,63.98
2018-05-15T03:51:27.324Z,63.95
2018-05-15T03:52:27.320Z,63.47
2018-05-15T03:53:27.315Z,63.56
2018-05-15T03:54:27.310Z,63.95
2018-05-15T03:55:27.306Z,63.56
2018-05-15T03:56:27.302Z,63.47
2018-05-15T03:57:27.292Z,63.47
2018-05-15T03:58:27.289Z,63.60
2018-05-15T03:59:27.283Z,63.50
2018-05-15T04:00:27.277Z,63.69
2018-05-15T04:01:27.273Z,63.60
2018-05-15T04:02:27.267Z,63.69
2018-05-15T04:03:27.260Z,63.60
2018-05-15T04:04:27.255Z,63.79
2018-05-15T04:05:27.249Z,63.60
2018-05-15T04:06:27.242Z,63.69
2018-05-15T04:07:27.234Z,63.40
2018-05-15T04:08:27.232Z,63.50
2018-05-15T04:09:27.223Z,63.50
2018-05-15T04:10:27.218Z,63.50
2018-05-15T04:11:27.212Z,63.50
2018-05-15T04:12:27.205Z,63.40
2018-05-15T04:13:27.203Z,63.50
2018-05-15T04:14:27.202Z,63.40
2018-05-15T04:15:27.190Z,63.89
2018-05-15T04:16:27.182Z,64.08
2018-05-15T04:17:27.176Z,64.08
2018-05-15T04:18:27.172Z,64.27
2018-05-15T04:19:27.164Z,64.08
2018-05-15T04:20:27.158Z,64.37
2018-05-15T04:21:27.151Z,64.18
2018-05-15T04:22:27.144Z,63.98
2018-05-15T04:23:27.140Z,63.60
2018-05-15T04:24:27.133Z,63.60
2018-05-15T04:25:27.126Z,63.69
2018-05-15T04:26:27.122Z,63.79
2018-05-15T04:27:27.113Z,63.02
2018-05-15T04:28:27.195Z,63.11
2018-05-15T04:29:27.102Z,62.73
2018-05-15T04:30:27.096Z,62.92
2018-05-15T04:31:27.087Z,62.63
2018-05-15T04:32:27.080Z,62.24
2018-05-15T04:33:27.076Z,62.05
2018-05-15T04:34:27.074Z,62.15
2018-05-15T04:35:27.069Z,62.24
2018-05-15T04:36:27.056Z,62.05
2018-05-15T04:37:27.050Z,62.34
2018-05-15T04:38:27.045Z,61.66
2018-05-15T04:39:27.039Z,61.95
2018-05-15T04:40:27.030Z,61.37
2018-05-15T04:41:27.022Z,61.37
2018-05-15T04:42:27.016Z,61.27
2018-05-15T04:43:27.113Z,61.47
2018-05-15T04:44:27.004Z,61.37
2018-05-15T04:45:26.999Z,60.99
2018-05-15T04:46:26.988Z,60.89
2018-05-15T04:47:26.981Z,61.08
2018-05-15T04:48:26.975Z,61.08
2018-05-15T04:49:27.045Z,60.99
2018-05-15T04:50:26.963Z,61.18
2018-05-15T04:51:26.955Z,61.18
2018-05-15T04:52:26.950Z,60.69
2018-05-15T04:53:26.942Z,60.69
2018-05-15T04:54:26.937Z,60.89
2018-05-15T04:55:26.927Z,60.69
2018-05-15T04:56:26.920Z,60.79
2018-05-15T04:57:26.914Z,60.60
2018-05-15T04:58:26.910Z,60.50
2018-05-15T04:59:26.903Z,60.60
2018-05-15T05:00:26.896Z,60.79
2018-05-15T05:01:26.960Z,60.41
2018-05-15T05:02:26.881Z,60.79
2018-05-15T05:03:26.875Z,60.50
2018-05-15T05:04:26.894Z,60.79
2018-05-15T05:05:26.861Z,60.60
2018-05-15T05:06:27.006Z,60.69
2018-05-15T05:07:26.847Z,60.41
2018-05-15T05:08:26.841Z,60.60
2018-05-15T05:09:26.835Z,60.79
2018-05-15T05:10:26.825Z,60.60
2018-05-15T05:11:26.820Z,60.50
2018-05-15T05:12:26.815Z,60.60
2018-05-15T05:13:26.807Z,60.41
2018-05-15T05:14:26.799Z,60.41
2018-05-15T05:15:26.794Z,60.21
2018-05-15T05:16:26.791Z,60.31
2018-05-15T05:17:26.783Z,60.31
2018-05-15T05:18:26.774Z,60.31
2018-05-15T05:19:26.773Z,60.31
2018-05-15T05:20:26.762Z,60.31
2018-05-15T05:21:26.753Z,60.11
2018-05-15T05:22:26.745Z,60.11
2018-05-15T05:23:26.745Z,60.11
2018-05-15T05:24:26.734Z,60.11
2018-05-15T05:25:26.727Z,60.11
2018-05-15T05:26:26.722Z,59.92
2018-05-15T05:27:26.712Z,60.11
2018-05-15T05:28:26.706Z,60.02
2018-05-15T05:29:26.699Z,60.11
2018-05-15T05:30:26.697Z,60.11
2018-05-15T05:31:26.686Z,60.02
2018-05-15T05:32:26.680Z,60.02
2018-05-15T05:33:26.672Z,59.92
2018-05-15T05:34:26.670Z,60.11
2018-05-15T05:35:26.660Z,60.02
2018-05-15T05:36:26.654Z,60.11
2018-05-15T05:37:26.645Z,60.02
2018-05-15T05:38:26.642Z,60.02
2018-05-15T05:39:26.631Z,60.02
2018-05-15T05:40:26.625Z,60.02
2018-05-15T05:41:26.620Z,60.21
2018-05-15T05:42:26.612Z,60.31
2018-05-15T05:43:26.605Z,60.02
2018-05-15T05:44:26.598Z,60.11
2018-05-15T05:45:26.592Z,60.31
2018-05-15T05:46:26.648Z,60.11
2018-05-15T05:47:26.578Z,60.11
2018-05-15T05:48:26.570Z,60.21
2018-05-15T05:49:26.562Z,60.11
2018-05-15T05:50:26.557Z,60.11
2018-05-15T05:51:26.550Z,60.11
2018-05-15T05:52:26.545Z,60.11
2018-05-15T05:53:26.536Z,60.11
2018-05-15T05:54:26.563Z,60.11
2018-05-15T05:55:26.524Z,60.11
2018-05-15T05:56:26.516Z,60.21
2018-05-15T05:57:26.518Z,60.11
2018-05-15T05:58:26.504Z,60.21
2018-05-15T05:59:26.495Z,60.11
2018-05-15T06:00:26.491Z,60.11
2018-05-15T06:01:26.484Z,60.11
2018-05-15T06:02:26.476Z,60.31
2018-05-15T06:03:26.476Z,60.11
2018-05-15T06:04:26.462Z,60.21
2018-05-15T06:05:26.455Z,60.21
2018-05-15T06:06:26.448Z,60.21
2018-05-15T06:07:26.513Z,60.21
2018-05-15T06:08:26.434Z,60.41
2018-05-15T06:09:26.428Z,60.31
2018-05-15T06:10:26.421Z,60.21
2018-05-15T06:11:26.416Z,60.21
2018-05-15T06:12:26.407Z,59.92
2018-05-15T06:13:26.401Z,59.83
2018-05-15T06:14:26.485Z,59.83
2018-05-15T06:15:26.391Z,59.63
2018-05-15T06:16:26.381Z,59.63
2018-05-15T06:17:26.374Z,59.44
2018-05-15T06:18:26.369Z,59.63
2018-05-15T06:19:26.361Z,59.83
2018-05-15T06:20:26.356Z,60.31
2018-05-15T06:21:26.349Z,59.83
2018-05-15T06:22:26.343Z,60.11
2018-05-15T06:23:26.338Z,59.63
2018-05-15T06:24:26.328Z,59.83
2018-05-15T06:25:26.321Z,59.73
2018-05-15T06:26:26.313Z,59.83
2018-05-15T06:27:26.401Z,59.83
2018-05-15T06:28:26.301Z,59.86
2018-05-15T06:29:26.294Z,59.63
2018-05-15T06:30:26.290Z,60.05
2018-05-15T06:31:26.280Z,59.44
2018-05-15T06:32:26.290Z,59.83
2018-05-15T06:33:26.268Z,60.02
2018-05-15T06:34:26.262Z,59.63
2018-05-15T06:35:26.253Z,59.63
2018-05-15T06:36:26.248Z,59.53
2018-05-15T06:37:26.239Z,59.86
2018-05-15T06:38:26.239Z,59.76
2018-05-15T06:39:26.229Z,59.95
2018-05-15T06:40:26.227Z,60.14
2018-05-15T06:41:26.214Z,59.95
2018-05-15T06:42:26.208Z,59.95
2018-05-15T06:43:26.200Z,60.14
2018-05-15T06:44:26.194Z,60.05
2018-05-15T06:45:26.188Z,59.76
2018-05-15T06:46:26.180Z,59.76
2018-05-15T06:47:26.190Z,59.66
2018-05-15T06:48:26.175Z,59.66
2018-05-15T06:49:26.159Z,59.47
2018-05-15T06:50:26.155Z,59.56
2018-05-15T06:51:26.153Z,59.47
2018-05-15T06:52:26.155Z,59.66
2018-05-15T06:53:26.133Z,59.66
2018-05-15T06:54:26.128Z,59.56
2018-05-15T06:55:26.181Z,59.76
2018-05-15T06:56:26.116Z,59.66
2018-05-15T06:57:26.105Z,59.47
2018-05-15T06:58:26.103Z,59.47
2018-05-15T06:59:26.093Z,59.47
2018-05-15T07:00:26.089Z,59.28
2018-05-15T07:01:26.080Z,59.18
2018-05-15T07:02:26.080Z,59.38
2018-05-15T07:03:26.070Z,59.38
2018-05-15T07:04:26.064Z,59.38
2018-05-15T07:05:26.054Z,58.89
2018-05-15T07:06:26.050Z,58.80
2018-05-15T07:07:26.041Z,58.89
2018-05-15T07:08:26.034Z,59.18
2018-05-15T07:09:26.028Z,59.18
2018-05-15T07:10:26.040Z,58.98
2018-05-15T07:11:26.019Z,59.08
2018-05-15T07:12:26.011Z,59.11
2018-05-15T07:13:26.002Z,59.11
2018-05-15T07:14:25.996Z,59.11
2018-05-15T07:15:25.990Z,59.01
2018-05-15T07:16:25.988Z,58.92
2018-05-15T07:17:25.978Z,58.82
2018-05-15T07:18:25.971Z,58.92
2018-05-15T07:19:26.002Z,58.82
2018-05-15T07:20:25.957Z,58.24
2018-05-15T07:21:25.951Z,58.53
2018-05-15T07:22:25.946Z,58.44
2018-05-15T07:23:25.940Z,58.44
2018-05-15T07:24:25.933Z,58.53
2018-05-15T07:25:25.926Z,58.72
2018-05-15T07:26:25.920Z,58.72
2018-05-15T07:27:25.987Z,58.53
2018-05-15T07:28:25.906Z,58.53
2018-05-15T07:29:25.898Z,58.53
2018-05-15T07:30:25.893Z,58.82
2018-05-15T07:31:25.887Z,58.72
2018-05-15T07:32:25.882Z,58.63
2018-05-15T07:33:25.875Z,58.63
2018-05-15T07:34:25.879Z,58.92
2018-05-15T07:35:25.861Z,58.92
2018-05-15T07:36:25.858Z,58.53
2018-05-15T07:37:25.849Z,58.53
2018-05-15T07:38:25.843Z,58.24
2018-05-15T07:39:25.835Z,58.24
2018-05-15T07:40:25.831Z,58.34
2018-05-15T07:41:25.825Z,58.34
2018-05-15T07:42:25.821Z,58.34
2018-05-15T07:43:25.811Z,58.17
2018-05-15T07:44:25.804Z,58.63
2018-05-15T07:45:25.799Z,58.37
2018-05-15T07:46:25.791Z,57.79
2018-05-15T07:47:25.786Z,57.98
2018-05-15T07:48:25.780Z,58.27
2018-05-15T07:49:25.777Z,57.98
2018-05-15T07:50:25.770Z,57.79
2018-05-15T07:51:25.760Z,57.98
2018-05-15T07:52:25.757Z,57.88
2018-05-15T07:53:25.748Z,57.88
2018-05-15T07:54:25.743Z,57.88
2018-05-15T07:55:25.737Z,57.88
2018-05-15T07:56:25.732Z,57.79
2018-05-15T07:57:25.724Z,57.69
2018-05-15T07:58:25.719Z,57.98
2018-05-15T07:59:25.714Z,58.07
2018-05-15T08:00:25.706Z,57.59
2018-05-15T08:01:25.704Z,57.69
2018-05-15T08:02:25.694Z,57.71
2018-05-15T08:03:25.689Z,57.59
2018-05-15T08:04:25.703Z,57.40
2018-05-15T08:05:25.676Z,57.43
2018-05-15T08:06:25.667Z,57.43
2018-05-15T08:07:25.664Z,57.69
2018-05-15T08:08:25.659Z,57.88
2018-05-15T08:09:25.651Z,57.79
2018-05-15T08:10:25.645Z,57.91
2018-05-15T08:11:25.639Z,57.43
2018-05-15T08:12:25.634Z,56.85
2018-05-15T08:13:25.625Z,57.14
2018-05-15T08:14:25.619Z,57.23
2018-05-15T08:15:25.615Z,57.14
2018-05-15T08:16:25.662Z,56.85
2018-05-15T08:17:25.601Z,57.14
2018-05-15T08:18:25.596Z,57.33
2018-05-15T08:19:25.592Z,56.97
2018-05-15T08:20:25.584Z,56.87
2018-05-15T08:21:25.578Z,56.97
2018-05-15T08:22:25.619Z,56.68
2018-05-15T08:23:25.568Z,56.75
2018-05-15T08:24:25.559Z,56.65
2018-05-15T08:25:25.557Z,56.77
2018-05-15T08:26:25.548Z,56.39
2018-05-15T08:27:25.543Z,56.29
2018-05-15T08:28:25.539Z,56.39
2018-05-15T08:29:25.536Z,56.59
2018-05-15T08:30:25.527Z,56.68
2018-05-15T08:31:25.520Z,56.49
2018-05-15T08:32:25.521Z,56.29
2018-05-15T08:33:25.512Z,56.39
2018-05-15T08:34:25.501Z,56.20
2018-05-15T08:35:25.497Z,55.81
2018-05-15T08:36:25.492Z,56.00
2018-05-15T08:37:25.509Z,56.13
2018-05-15T08:38:25.485Z,55.93
2018-05-15T08:39:25.612Z,55.74
2018-05-15T08:40:25.469Z,55.74
2018-05-15T08:41:25.461Z,55.93
2018-05-15T08:42:25.455Z,56.03
2018-05-15T08:43:25.449Z,56.23
2018-05-15T08:44:25.447Z,55.54
2018-05-15T08:45:25.484Z,55.54
2018-05-15T08:46:25.433Z,55.44
2018-05-15T08:47:25.427Z,55.64
2018-05-15T08:48:25.422Z,55.54
2018-05-15T08:49:25.434Z,55.26
2018-05-15T08:50:25.412Z,55.64
2018-05-15T08:51:25.475Z,55.16
2018-05-15T08:52:25.400Z,55.35
2018-05-15T08:53:25.394Z,55.35
2018-05-15T08:54:25.391Z,55.54
2018-05-15T08:55:25.381Z,55.16
2018-05-15T08:56:25.376Z,55.54
2018-05-15T08:57:25.371Z,55.64
2018-05-15T08:58:25.365Z,55.54
2018-05-15T08:59:25.410Z,55.54
2018-05-15T09:00:25.371Z,55.44
2018-05-15T09:01:25.348Z,54.86
2018-05-15T09:02:25.345Z,55.06
2018-05-15T09:03:25.337Z,55.06
2018-05-15T09:04:25.331Z,55.06
2018-05-15T09:05:25.326Z,55.16
2018-05-15T09:06:25.321Z,55.06
2018-05-15T09:07:25.315Z,55.06
2018-05-15T09:08:25.311Z,55.06
2018-05-15T09:09:25.305Z,55.16
2018-05-15T09:10:25.298Z,55.06
2018-05-15T09:11:25.294Z,54.77
2018-05-15T09:12:25.290Z,55.18
2018-05-15T09:13:25.283Z,55.18
2018-05-15T09:14:25.278Z,54.99
2018-05-15T09:15:25.272Z,55.28
2018-05-15T09:16:25.266Z,54.99
2018-05-15T09:17:25.260Z,55.08
2018-05-15T09:18:25.320Z,54.99
2018-05-15T09:19:25.250Z,55.18
2018-05-15T09:20:25.244Z,54.60
2018-05-15T09:21:25.238Z,54.80
2018-05-15T09:22:25.232Z,54.80
2018-05-15T09:23:25.228Z,54.80
2018-05-15T09:24:25.231Z,54.90
2018-05-15T09:25:25.217Z,54.80
2018-05-15T09:26:25.211Z,54.50
2018-05-15T09:27:25.206Z,55.28
2018-05-15T09:28:25.202Z,54.60
2018-05-15T09:29:25.199Z,54.50
2018-05-15T09:30:25.188Z,54.80
2018-05-15T09:31:25.188Z,54.70
2018-05-15T09:32:25.180Z,54.31
2018-05-15T09:33:25.174Z,54.31
2018-05-15T09:34:25.166Z,54.41
2018-05-15T09:35:25.163Z,54.41
2018-05-15T09:36:25.167Z,54.41
2018-05-15T09:37:25.152Z,54.11
2018-05-15T09:38:25.147Z,54.34
2018-05-15T09:39:25.139Z,53.92
2018-05-15T09:40:25.138Z,54.05
2018-05-15T09:41:26.508Z,54.34
2018-05-15T09:42:25.184Z,54.14
2018-05-15T09:43:25.119Z,54.14
2018-05-15T09:44:25.119Z,54.14
2018-05-15T09:45:25.112Z,53.85
2018-05-15T09:46:25.105Z,53.85
2018-05-15T09:47:25.099Z,53.75
2018-05-15T09:48:25.095Z,53.85
2018-05-15T09:49:25.092Z,53.66
2018-05-15T09:50:25.084Z,53.75
2018-05-15T09:51:25.077Z,53.85
2018-05-15T09:52:25.264Z,53.75
2018-05-15T09:53:25.067Z,54.05
2018-05-15T09:54:25.062Z,53.66
2018-05-15T09:55:25.058Z,53.66
2018-05-15T09:56:25.056Z,53.56
2018-05-15T09:57:25.049Z,53.39
2018-05-15T09:58:25.042Z,53.37
2018-05-15T09:59:25.037Z,53.27
2018-05-15T10:00:25.032Z,53.10
2018-05-15T10:01:25.033Z,53.20
2018-05-15T10:02:25.022Z,53.10
2018-05-15T10:03:25.018Z,53.39
2018-05-15T10:04:25.014Z,53.49
2018-05-15T10:05:25.007Z,53.49
2018-05-15T10:06:25.002Z,53.56
2018-05-15T10:07:24.997Z,52.98
2018-05-15T10:08:24.992Z,53.10
2018-05-15T10:09:24.991Z,53.27
2018-05-15T10:10:25.395Z,53.27
2018-05-15T10:11:24.976Z,53.37
2018-05-15T10:12:24.972Z,53.56
2018-05-15T10:13:24.967Z,53.56
2018-05-15T10:14:24.960Z,53.66
2018-05-15T10:15:24.955Z,53.56
2018-05-15T10:16:24.954Z,53.56
2018-05-15T10:17:24.944Z,53.47
2018-05-15T10:18:24.940Z,53.56
2018-05-15T10:19:24.936Z,53.17
2018-05-15T10:20:24.932Z,53.17
2018-05-15T10:21:24.926Z,53.17
2018-05-15T10:22:24.922Z,53.37
2018-05-15T10:23:24.919Z,53.37
2018-05-15T10:24:24.910Z,53.39
2018-05-15T10:25:24.905Z,53.39
2018-05-15T10:26:24.910Z,53.10
2018-05-15T10:27:24.901Z,53.20
2018-05-15T10:28:24.891Z,53.37
2018-05-15T10:29:24.885Z,53.56
2018-05-15T10:30:24.885Z,53.27
2018-05-15T10:31:24.876Z,53.47
2018-05-15T10:32:24.918Z,53.17
2018-05-15T10:33:24.867Z,53.17
2018-05-15T10:34:24.860Z,53.37
2018-05-15T10:35:24.855Z,53.56
2018-05-15T10:36:24.851Z,53.66
2018-05-15T10:37:24.874Z,53.47
2018-05-15T10:38:24.840Z,53.56
2018-05-15T10:39:24.838Z,53.37
2018-05-15T10:40:24.830Z,53.17
2018-05-15T10:41:24.824Z,53.37
2018-05-15T10:42:24.819Z,53.47
2018-05-15T10:43:24.815Z,53.39
2018-05-15T10:44:24.809Z,53.47
2018-05-15T10:45:24.804Z,53.39
2018-05-15T10:46:24.819Z,53.59
2018-05-15T10:47:24.795Z,53.20
2018-05-15T10:48:24.789Z,52.98
2018-05-15T10:49:24.784Z,53.47
2018-05-15T10:50:24.778Z,53.37
2018-05-15T10:51:24.774Z,52.98
2018-05-15T10:52:24.769Z,53.17
2018-05-15T10:53:24.767Z,53.17
2018-05-15T10:54:24.759Z,53.08
2018-05-15T10:55:24.753Z,53.27
2018-05-15T10:56:24.800Z,53.17
2018-05-15T10:57:24.742Z,53.37
2018-05-15T10:58:24.741Z,52.98
2018-05-15T10:59:24.778Z,53.49
2018-05-15T11:00:24.728Z,53.20
2018-05-15T11:01:24.722Z,53.00
2018-05-15T11:02:24.718Z,52.72
2018-05-15T11:03:25.143Z,52.91
2018-05-15T11:04:24.920Z,53.00
2018-05-15T11:05:24.733Z,53.00
2018-05-15T11:06:24.697Z,53.10
2018-05-15T11:07:24.693Z,52.81
2018-05-15T11:08:24.689Z,52.62
2018-05-15T11:09:24.682Z,52.62
2018-05-15T11:10:24.680Z,52.42
2018-05-15T11:11:24.673Z,52.62
2018-05-15T11:12:24.669Z,52.81
2018-05-15T11:13:24.661Z,52.69
2018-05-15T11:14:24.662Z,52.98
2018-05-15T11:15:24.653Z,53.08
2018-05-15T11:16:24.648Z,52.78
2018-05-15T11:17:24.643Z,53.20
2018-05-15T11:18:24.641Z,52.98
2018-05-15T11:19:24.632Z,52.78
2018-05-15T11:20:24.628Z,52.69
2018-05-15T11:21:24.622Z,52.88
2018-05-15T11:22:24.619Z,53.37
2018-05-15T11:23:24.613Z,53.47
2018-05-15T11:24:24.609Z,53.08
2018-05-15T11:25:24.601Z,53.17
2018-05-15T11:26:24.597Z,53.08
2018-05-15T11:27:24.592Z,53.27
2018-05-15T11:28:24.587Z,53.47
2018-05-15T11:29:24.582Z,53.53
2018-05-15T11:30:24.579Z,53.47
2018-05-15T11:31:24.574Z,53.47
2018-05-15T11:32:24.567Z,53.17
2018-05-15T11:33:24.560Z,53.17
2018-05-15T11:34:24.557Z,53.27
2018-05-15T11:35:24.551Z,53.17
2018-05-15T11:36:24.546Z,53.37
2018-05-15T11:37:24.541Z,53.37
2018-05-15T11:38:24.536Z,53.37
2018-05-15T11:39:24.534Z,53.17
2018-05-15T11:40:24.524Z,53.17
2018-05-15T11:41:24.528Z,53.08
2018-05-15T11:42:24.515Z,53.53
2018-05-15T11:43:24.513Z,53.53
2018-05-15T11:44:24.506Z,53.63
2018-05-15T11:45:24.500Z,53.44
2018-05-15T11:46:24.494Z,53.53
2018-05-15T11:47:24.659Z,53.83
2018-05-15T11:48:25.081Z,53.47
2018-05-15T11:49:25.278Z,53.44
2018-05-15T11:50:25.751Z,53.56
2018-05-15T11:51:25.177Z,53.17
2018-05-15T11:52:25.242Z,53.17
2018-05-15T11:53:24.457Z,52.98
2018-05-15T11:54:24.454Z,52.98
2018-05-15T11:55:24.452Z,52.98
2018-05-15T11:56:24.453Z,53.05
2018-05-15T11:57:24.438Z,53.44
2018-05-15T11:58:24.530Z,53.63
2018-05-15T11:59:24.429Z,53.92
2018-05-15T12:00:24.422Z,53.92
2018-05-15T12:01:24.427Z,53.83
2018-05-15T12:02:24.441Z,53.73
2018-05-15T12:03:24.408Z,53.83
2018-05-15T12:04:24.402Z,53.83
2018-05-15T12:05:24.393Z,53.73
2018-05-15T12:06:24.392Z,53.92
2018-05-15T12:07:24.387Z,53.83
2018-05-15T12:08:24.435Z,54.11
2018-05-15T12:09:24.374Z,54.31
2018-05-15T12:10:24.370Z,54.11
2018-05-15T12:11:24.363Z,54.11
2018-05-15T12:12:24.360Z,53.92
2018-05-15T12:13:24.353Z,54.38
2018-05-15T12:14:24.347Z,53.99
2018-05-15T12:15:24.516Z,54.19
2018-05-15T12:16:24.338Z,54.19
2018-05-15T12:17:24.331Z,54.28
2018-05-15T12:18:24.331Z,54.48
2018-05-15T12:19:24.327Z,54.48
2018-05-15T12:20:24.343Z,54.38
2018-05-15T12:21:24.311Z,54.19
2018-05-15T12:22:24.306Z,54.38
2018-05-15T12:23:24.299Z,54.38
2018-05-15T12:24:24.299Z,54.38
2018-05-15T12:25:24.289Z,54.67
2018-05-15T12:26:24.292Z,54.77
2018-05-15T12:27:24.327Z,54.58
2018-05-15T12:28:24.296Z,55.26
2018-05-15T12:29:24.270Z,54.48
2018-05-15T12:30:24.287Z,55.16
2018-05-15T12:31:24.256Z,55.16
2018-05-15T12:32:24.250Z,54.74
2018-05-15T12:33:24.246Z,54.58
2018-05-15T12:34:24.241Z,54.86
2018-05-15T12:35:24.235Z,54.58
2018-05-15T12:36:24.236Z,54.58
2018-05-15T12:37:24.225Z,54.48
2018-05-15T12:38:24.220Z,54.48
2018-05-15T12:39:24.214Z,54.48
2018-05-15T12:40:24.210Z,54.19
2018-05-15T12:41:24.214Z,54.09
2018-05-15T12:42:24.196Z,54.09
2018-05-15T12:43:24.192Z,54.19
2018-05-15T12:44:24.187Z,53.89
2018-05-15T12:45:24.184Z,53.89
2018-05-15T12:46:24.174Z,54.19
2018-05-15T12:47:24.175Z,53.99
2018-05-15T12:48:24.166Z,54.09
2018-05-15T12:49:24.157Z,54.09
2018-05-15T12:50:24.153Z,54.09
2018-05-15T12:51:24.152Z,53.99
2018-05-15T12:52:24.141Z,54.19